createdAt,value
2019-02-27T00:00:09.142Z,-1.35
2019-02-27T00:01:07.583Z,-1.35
2019-02-27T00:02:07.557Z,-1.41
2019-02-27T00:03:07.547Z,-1.36
2019-02-27T00:04:07.611Z,-1.28
2019-02-27T00:05:08.419Z,-1.18
2019-02-27T00:06:07.508Z,-1.20
2019-02-27T00:07:07.500Z,-1.23
2019-02-27T00:08:07.488Z,-1.38
2019-02-27T00:09:07.487Z,-1.28
2019-02-27T00:10:07.503Z,-1.35
2019-02-27T00:11:07.458Z,-1.35
2019-02-27T00:12:07.472Z,-1.38
2019-02-27T00:13:07.439Z,-1.28
2019-02-27T00:14:07.423Z,-1.30
2019-02-27T00:15:07.423Z,-1.31
2019-02-27T00:16:10.862Z,-1.28
2019-02-27T00:17:08.321Z,-1.33
2019-02-27T00:18:07.380Z,-1.35
2019-02-27T00:19:07.369Z,-1.41
2019-02-27T00:20:07.363Z,-1.42
2019-02-27T00:21:10.230Z,-1.46
2019-02-27T00:22:07.344Z,-1.42
2019-02-27T00:23:07.369Z,-1.48
2019-02-27T00:24:07.325Z,-1.49
2019-02-27T00:25:07.312Z,-1.39
2019-02-27T00:26:09.056Z,-1.38
2019-02-27T00:27:07.297Z,-1.39
2019-02-27T00:28:07.308Z,-1.38
2019-02-27T00:29:07.300Z,-1.43
2019-02-27T00:30:07.260Z,-1.60
2019-02-27T00:31:11.177Z,-1.60
2019-02-27T00:32:07.237Z,-1.72
2019-02-27T00:33:07.267Z,-1.57
2019-02-27T00:34:07.226Z,-1.53
2019-02-27T00:35:07.491Z,-1.48
2019-02-27T00:36:07.200Z,-1.45
2019-02-27T00:37:07.193Z,-1.41
2019-02-27T00:38:07.213Z,-1.33
2019-02-27T00:39:07.176Z,-1.48
2019-02-27T00:40:07.160Z,-1.56
2019-02-27T00:41:07.154Z,-1.69
2019-02-27T00:42:07.170Z,-1.70
2019-02-27T00:43:07.140Z,-1.75
2019-02-27T00:44:07.126Z,-1.84
2019-02-27T00:45:07.699Z,-1.88
2019-02-27T00:46:07.105Z,-1.84
2019-02-27T00:47:07.100Z,-1.78
2019-02-27T00:48:07.102Z,-1.82
2019-02-27T00:49:07.070Z,-1.81
2019-02-27T00:50:07.077Z,-1.90
2019-02-27T00:51:07.076Z,-1.96
2019-02-27T00:52:07.045Z,-1.87
2019-02-27T00:53:07.037Z,-1.85
2019-02-27T00:54:07.023Z,-1.85
2019-02-27T00:55:07.024Z,-1.92
2019-02-27T00:56:07.031Z,-1.95
2019-02-27T00:57:06.988Z,-1.98
2019-02-27T00:58:06.984Z,-1.99
2019-02-27T00:59:06.978Z,-1.96
2019-02-27T01:00:07.189Z,-1.99
2019-02-27T01:01:06.952Z,-2.08
2019-02-27T01:02:06.998Z,-2.10
2019-02-27T01:03:06.942Z,-2.16
2019-02-27T01:04:06.930Z,-2.13
2019-02-27T01:05:09.201Z,-2.11
2019-02-27T01:06:06.917Z,-2.24
2019-02-27T01:07:06.927Z,-2.17
2019-02-27T01:08:06.890Z,-2.13
2019-02-27T01:09:07.074Z,-2.16
2019-02-27T01:10:06.875Z,-2.10
2019-02-27T01:11:06.866Z,-2.05
2019-02-27T01:12:06.881Z,-2.06
2019-02-27T01:13:06.836Z,-1.99
2019-02-27T01:14:06.828Z,-1.98
2019-02-27T01:15:07.905Z,-2.00
2019-02-27T01:16:06.807Z,-1.95
2019-02-27T01:17:06.822Z,-1.85
2019-02-27T01:18:06.787Z,-1.96
2019-02-27T01:19:06.774Z,-2.00
2019-02-27T01:20:11.187Z,-2.08
2019-02-27T01:21:07.757Z,-2.02
2019-02-27T01:22:06.800Z,-2.20
2019-02-27T01:23:10.910Z,-2.14
2019-02-27T01:24:06.732Z,-2.16
2019-02-27T01:25:06.783Z,-2.06
2019-02-27T01:26:06.707Z,-2.06
2019-02-27T01:27:06.728Z,-1.95
2019-02-27T01:28:10.854Z,-1.98
2019-02-27T01:29:06.670Z,-2.13
2019-02-27T01:30:06.666Z,-2.24
2019-02-27T01:31:06.659Z,-2.21
2019-02-27T01:32:06.744Z,-2.28
2019-02-27T01:33:06.639Z,-2.36
2019-02-27T01:34:11.182Z,-2.42
2019-02-27T01:35:07.619Z,-2.51
2019-02-27T01:36:06.608Z,-2.56
2019-02-27T01:37:06.630Z,-2.60
2019-02-27T01:38:06.594Z,-2.57
2019-02-27T01:39:08.926Z,-2.58
2019-02-27T01:40:06.574Z,-2.66
2019-02-27T01:41:06.557Z,-2.63
2019-02-27T01:42:06.652Z,-2.63
2019-02-27T01:43:06.569Z,-2.64
2019-02-27T01:44:06.525Z,-2.63
2019-02-27T01:45:06.515Z,-2.50
2019-02-27T01:46:06.510Z,-2.56
2019-02-27T01:47:06.499Z,-2.51
2019-02-27T01:48:08.948Z,-2.56
2019-02-27T01:49:06.473Z,-2.54
2019-02-27T01:50:06.460Z,-2.45
2019-02-27T01:51:06.454Z,-2.53
2019-02-27T01:52:06.475Z,-2.57
2019-02-27T01:53:07.323Z,-2.61
2019-02-27T01:54:06.423Z,-2.63
2019-02-27T01:55:06.427Z,-2.57
2019-02-27T01:56:06.409Z,-2.54
2019-02-27T01:57:06.414Z,-2.50
2019-02-27T01:58:09.132Z,-2.40
2019-02-27T01:59:06.369Z,-2.48
2019-02-27T02:00:06.395Z,-2.56
2019-02-27T02:01:06.357Z,-2.53
2019-02-27T02:02:06.362Z,-2.60
2019-02-27T02:03:06.335Z,-2.66
2019-02-27T02:04:06.346Z,-2.68
2019-02-27T02:05:06.316Z,-2.61
2019-02-27T02:06:06.302Z,-2.72
2019-02-27T02:07:07.302Z,-2.75
2019-02-27T02:08:06.276Z,-2.76
2019-02-27T02:09:06.269Z,-2.74
2019-02-27T02:10:06.294Z,-2.64
2019-02-27T02:11:06.257Z,-2.58
2019-02-27T02:12:08.650Z,-2.51
2019-02-27T02:13:06.232Z,-2.40
2019-02-27T02:14:06.228Z,-2.43
2019-02-27T02:15:06.212Z,-2.38
2019-02-27T02:16:06.205Z,-2.33
2019-02-27T02:17:07.455Z,-2.40
2019-02-27T02:18:06.182Z,-2.33
2019-02-27T02:19:06.172Z,-2.43
2019-02-27T02:20:06.161Z,-2.54
2019-02-27T02:21:06.161Z,-2.56
2019-02-27T02:22:08.999Z,-2.56
2019-02-27T02:23:06.134Z,-2.54
2019-02-27T02:24:06.122Z,-2.54
2019-02-27T02:25:06.129Z,-2.53
2019-02-27T02:26:06.128Z,-2.45
2019-02-27T02:27:08.237Z,-2.53
2019-02-27T02:28:06.088Z,-2.54
2019-02-27T02:29:06.069Z,-2.61
2019-02-27T02:30:06.151Z,-2.68
2019-02-27T02:31:06.547Z,-2.76
2019-02-27T02:32:06.042Z,-2.81
2019-02-27T02:33:06.054Z,-2.81
2019-02-27T02:34:06.361Z,-2.90
2019-02-27T02:35:06.013Z,-2.82
2019-02-27T02:36:06.008Z,-2.89
2019-02-27T02:37:05.994Z,-2.79
2019-02-27T02:38:12.056Z,-2.85
2019-02-27T02:39:06.971Z,-2.79
2019-02-27T02:40:05.964Z,-2.79
2019-02-27T02:43:23.486Z,-2.53
2019-02-27T02:44:23.466Z,-2.42
2019-02-27T02:45:23.446Z,-2.42
2019-02-27T02:46:23.455Z,-2.50
2019-02-27T02:47:23.431Z,-2.47
2019-02-27T02:48:23.445Z,-2.54
2019-02-27T02:49:23.414Z,-2.58
2019-02-27T02:50:23.398Z,-2.57
2019-02-27T02:51:28.582Z,-2.68
2019-02-27T02:52:24.376Z,-2.64
2019-02-27T02:53:25.377Z,-2.71
2019-02-27T02:54:23.353Z,-2.81
2019-02-27T02:55:23.347Z,-2.89
2019-02-27T02:56:24.848Z,-3.10
2019-02-27T02:57:23.357Z,-3.08
2019-02-27T02:58:23.324Z,-3.18
2019-02-27T02:59:24.958Z,-3.14
2019-02-27T03:00:23.415Z,-3.07
2019-02-27T03:01:23.286Z,-2.97
2019-02-27T03:02:24.620Z,-2.78
2019-02-27T03:03:23.264Z,-2.72
2019-02-27T03:04:23.257Z,-2.68
2019-02-27T03:05:24.355Z,-2.76
2019-02-27T03:06:23.250Z,-2.72
2019-02-27T03:07:23.222Z,-2.78
2019-02-27T03:08:23.239Z,-2.68
2019-02-27T03:09:23.205Z,-2.72
2019-02-27T03:10:23.432Z,-2.71
2019-02-27T03:11:23.965Z,-2.66
2019-02-27T03:12:29.942Z,-2.68
2019-02-27T03:13:24.545Z,-2.58
2019-02-27T03:14:23.425Z,-2.64
2019-02-27T03:15:28.474Z,-2.61
2019-02-27T03:16:24.349Z,-2.56
2019-02-27T03:17:23.369Z,-2.57
2019-02-27T03:18:26.298Z,-2.54
2019-02-27T03:19:24.589Z,-2.57
2019-02-27T03:20:23.344Z,-2.61
2019-02-27T03:21:27.379Z,-2.69
2019-02-27T03:22:24.353Z,-2.87
2019-02-27T03:23:23.340Z,-2.82
2019-02-27T03:24:27.932Z,-2.89
2019-02-27T03:25:24.289Z,-2.92
2019-02-27T03:26:23.260Z,-2.86
2019-02-27T03:27:29.563Z,-2.92
2019-02-27T03:28:24.244Z,-2.81
2019-02-27T03:29:23.258Z,-2.78
2019-02-27T03:30:34.046Z,-2.78
2019-02-27T03:31:24.244Z,-2.92
2019-02-27T03:32:23.246Z,-2.78
2019-02-27T03:33:26.661Z,-2.82
2019-02-27T03:34:23.205Z,-2.85
2019-02-27T03:35:27.929Z,-2.87
2019-02-27T03:36:24.063Z,-2.85
2019-02-27T03:37:22.980Z,-2.87
2019-02-27T03:38:24.063Z,-2.85
2019-02-27T03:39:23.026Z,-2.82
2019-02-27T03:40:22.950Z,-2.94
2019-02-27T03:41:23.770Z,-2.99
2019-02-27T03:42:22.928Z,-3.15
2019-02-27T03:43:22.928Z,-3.13
2019-02-27T03:44:22.903Z,-3.23
2019-02-27T03:45:22.896Z,-3.17
2019-02-27T03:46:22.978Z,-3.31
2019-02-27T03:47:22.893Z,-3.31
2019-02-27T03:48:27.585Z,-3.26
2019-02-27T03:49:23.941Z,-3.29
2019-02-27T03:50:22.852Z,-3.08
2019-02-27T03:51:24.786Z,-3.00
2019-02-27T03:52:22.827Z,-2.92
2019-02-27T03:53:22.824Z,-2.81
2019-02-27T03:54:22.891Z,-2.64
2019-02-27T03:55:22.800Z,-2.58
2019-02-27T03:56:22.786Z,-2.50
2019-02-27T03:57:22.775Z,-2.45
2019-02-27T03:58:22.762Z,-2.48
2019-02-27T03:59:22.840Z,-2.33
2019-02-27T04:00:22.744Z,-2.29
2019-02-27T04:01:22.737Z,-2.32
2019-02-27T04:02:22.736Z,-2.33
2019-02-27T04:03:22.705Z,-2.33
2019-02-27T04:04:22.781Z,-2.43
2019-02-27T04:05:22.699Z,-2.53
2019-02-27T04:06:22.695Z,-2.57
2019-02-27T04:07:22.686Z,-2.50
2019-02-27T04:08:22.666Z,-2.51
2019-02-27T04:09:22.739Z,-2.56
2019-02-27T04:10:22.634Z,-2.45
2019-02-27T04:11:22.635Z,-2.47
2019-02-27T04:12:22.620Z,-2.45
2019-02-27T04:13:26.407Z,-2.54
2019-02-27T04:14:23.696Z,-2.69
2019-02-27T04:15:22.589Z,-2.69
2019-02-27T04:16:28.920Z,-2.78
2019-02-27T04:17:23.565Z,-2.75
2019-02-27T04:18:27.523Z,-2.74
2019-02-27T04:19:23.566Z,-2.78
2019-02-27T04:20:22.597Z,-2.79
2019-02-27T04:21:25.367Z,-2.87
2019-02-27T04:22:22.507Z,-2.92
2019-02-27T04:23:22.501Z,-2.89
2019-02-27T04:24:23.237Z,-2.85
2019-02-27T04:25:22.571Z,-2.94
2019-02-27T04:26:22.482Z,-3.14
2019-02-27T04:27:22.446Z,-3.13
2019-02-27T04:28:22.455Z,-3.26
2019-02-27T04:29:22.461Z,-3.26
2019-02-27T04:30:22.504Z,-3.39
2019-02-27T04:31:22.437Z,-3.44
2019-02-27T04:32:22.410Z,-3.49
2019-02-27T04:33:23.201Z,-3.51
2019-02-27T04:34:22.405Z,-3.75
2019-02-27T04:35:22.447Z,-3.75
2019-02-27T04:36:22.384Z,-3.72
2019-02-27T04:37:22.380Z,-3.57
2019-02-27T04:38:22.356Z,-3.43
2019-02-27T04:39:22.343Z,-3.46
2019-02-27T04:40:22.444Z,-3.35
2019-02-27T04:41:22.329Z,-3.39
2019-02-27T04:42:22.947Z,-3.31
2019-02-27T04:43:22.380Z,-3.35
2019-02-27T04:44:22.306Z,-3.35
2019-02-27T04:45:22.293Z,-3.41
2019-02-27T04:46:22.450Z,-3.49
2019-02-27T04:47:22.343Z,-3.49
2019-02-27T04:48:22.248Z,-3.49
2019-02-27T04:49:22.240Z,-3.51
2019-02-27T04:50:22.224Z,-3.53
2019-02-27T04:51:22.228Z,-3.57
2019-02-27T04:52:24.407Z,-3.75
2019-02-27T04:53:22.178Z,-3.70
2019-02-27T04:54:22.169Z,-3.71
2019-02-27T04:55:22.162Z,-3.80
2019-02-27T04:56:23.301Z,-3.84
2019-02-27T04:57:22.173Z,-3.84
2019-02-27T04:58:22.125Z,-3.76
2019-02-27T04:59:22.100Z,-3.86
2019-02-27T05:00:26.086Z,-3.91
2019-02-27T05:01:22.086Z,-3.90
2019-02-27T05:02:22.101Z,-3.87
2019-02-27T05:03:22.071Z,-3.80
2019-02-27T05:04:22.054Z,-3.80
2019-02-27T05:05:22.048Z,-3.87
2019-02-27T05:06:22.032Z,-3.84
2019-02-27T05:07:22.254Z,-3.98
2019-02-27T05:08:22.041Z,-3.96
2019-02-27T05:09:22.002Z,-3.98
2019-02-27T05:10:22.024Z,-3.98
2019-02-27T05:11:21.988Z,-3.87
2019-02-27T05:12:21.979Z,-3.75
2019-02-27T05:13:21.959Z,-3.70
2019-02-27T05:14:21.960Z,-3.65
2019-02-27T05:15:21.945Z,-3.62
2019-02-27T05:16:21.972Z,-3.49
2019-02-27T05:17:22.048Z,-3.51
2019-02-27T05:18:21.907Z,-3.50
2019-02-27T05:19:21.909Z,-3.39
2019-02-27T05:20:21.900Z,-3.44
2019-02-27T05:21:21.879Z,-3.49
2019-02-27T05:22:26.432Z,-3.39
2019-02-27T05:23:21.894Z,-3.41
2019-02-27T05:24:21.849Z,-3.33
2019-02-27T05:25:21.875Z,-3.28
2019-02-27T05:26:21.836Z,-3.31
2019-02-27T05:27:21.823Z,-3.22
2019-02-27T05:28:21.845Z,-3.22
2019-02-27T05:29:21.808Z,-3.25
2019-02-27T05:30:21.826Z,-3.29
2019-02-27T05:31:21.782Z,-3.49
2019-02-27T05:32:22.245Z,-3.56
2019-02-27T05:33:21.805Z,-3.57
2019-02-27T05:34:21.782Z,-3.44
2019-02-27T05:35:24.211Z,-3.46
2019-02-27T05:36:21.742Z,-3.47
2019-02-27T05:37:21.750Z,-3.47
2019-02-27T05:38:21.734Z,-3.46
2019-02-27T05:39:21.703Z,-3.49
2019-02-27T05:40:25.672Z,-3.50
2019-02-27T05:41:21.704Z,-3.44
2019-02-27T05:42:21.696Z,-3.44
2019-02-27T05:43:21.669Z,-3.35
2019-02-27T05:44:22.322Z,-3.25
2019-02-27T05:45:21.652Z,-3.25
2019-02-27T05:46:21.641Z,-3.29
2019-02-27T05:47:21.649Z,-3.25
2019-02-27T05:48:21.609Z,-3.23
2019-02-27T05:49:21.606Z,-3.35
2019-02-27T05:50:21.592Z,-3.29
2019-02-27T05:51:21.593Z,-3.31
2019-02-27T05:52:21.600Z,-3.33
2019-02-27T05:53:22.356Z,-3.33
2019-02-27T05:54:21.566Z,-3.33
2019-02-27T05:55:21.550Z,-3.29
2019-02-27T05:56:21.554Z,-3.26
2019-02-27T05:57:23.342Z,-3.29
2019-02-27T05:58:23.104Z,-3.38
2019-02-27T05:59:21.552Z,-3.46
2019-02-27T06:00:21.584Z,-3.36
2019-02-27T06:01:21.494Z,-3.38
2019-02-27T06:02:21.486Z,-3.33
2019-02-27T06:03:21.512Z,-3.25
2019-02-27T06:04:24.978Z,-3.23
2019-02-27T06:05:21.443Z,-3.26
2019-02-27T06:06:21.430Z,-3.23
2019-02-27T06:07:21.439Z,-3.29
2019-02-27T06:08:21.442Z,-3.22
2019-02-27T06:09:21.407Z,-3.11
2019-02-27T06:10:23.423Z,-3.08
2019-02-27T06:11:21.396Z,-3.17
2019-02-27T06:12:21.389Z,-3.23
2019-02-27T06:13:21.396Z,-3.29
2019-02-27T06:14:21.988Z,-3.31
2019-02-27T06:15:21.345Z,-3.36
2019-02-27T06:16:21.338Z,-3.47
2019-02-27T06:17:21.428Z,-3.46
2019-02-27T06:18:23.466Z,-3.47
2019-02-27T06:19:21.311Z,-3.54
2019-02-27T06:20:21.293Z,-3.61
2019-02-27T06:21:21.292Z,-3.61
2019-02-27T06:22:21.270Z,-3.67
2019-02-27T06:23:21.295Z,-3.70
2019-02-27T06:24:21.366Z,-3.50
2019-02-27T06:25:23.334Z,-3.49
2019-02-27T06:26:21.247Z,-3.49
2019-02-27T06:27:21.270Z,-3.51
2019-02-27T06:28:21.243Z,-3.31
2019-02-27T06:29:23.403Z,-3.22
2019-02-27T06:30:21.195Z,-3.22
2019-02-27T06:31:21.194Z,-3.10
2019-02-27T06:32:21.208Z,-2.87
2019-02-27T06:33:21.196Z,-2.82
2019-02-27T06:34:22.323Z,-2.60
2019-02-27T06:35:21.162Z,-2.60
2019-02-27T06:36:21.137Z,-2.56
2019-02-27T06:37:21.130Z,-2.56
2019-02-27T06:38:25.034Z,-2.54
2019-02-27T06:39:21.108Z,-2.60
2019-02-27T06:40:21.112Z,-2.58
2019-02-27T06:41:21.084Z,-2.53
2019-02-27T06:42:21.163Z,-2.53
2019-02-27T06:43:21.111Z,-2.53
2019-02-27T06:44:21.057Z,-2.60
2019-02-27T06:45:21.045Z,-2.57
2019-02-27T06:46:21.058Z,-2.38
2019-02-27T06:47:21.022Z,-2.13
2019-02-27T06:48:21.049Z,-1.80
2019-02-27T06:49:21.006Z,-1.62
2019-02-27T06:50:25.279Z,-1.35
2019-02-27T06:51:21.987Z,-1.28
2019-02-27T06:52:20.976Z,-1.07
2019-02-27T06:53:20.966Z,-0.84
2019-02-27T06:54:20.986Z,-0.66
2019-02-27T06:55:20.945Z,-0.54
2019-02-27T06:56:20.930Z,-0.29
2019-02-27T06:57:20.923Z,-0.33
2019-02-27T06:58:20.945Z,-0.16
2019-02-27T06:59:24.852Z,-0.11
2019-02-27T07:00:20.899Z,0.06
2019-02-27T07:01:20.891Z,0.12
2019-02-27T07:02:21.703Z,0.28
2019-02-27T07:03:20.897Z,0.41
2019-02-27T07:04:20.849Z,0.42
2019-02-27T07:05:20.846Z,0.48
2019-02-27T07:06:21.650Z,0.61
2019-02-27T07:07:20.826Z,0.68
2019-02-27T07:08:20.845Z,0.82
2019-02-27T07:09:20.797Z,0.97
2019-02-27T07:10:20.798Z,1.19
2019-02-27T07:11:20.782Z,1.37
2019-02-27T07:12:21.784Z,1.51
2019-02-27T07:13:21.657Z,1.62
2019-02-27T07:14:20.750Z,1.76
2019-02-27T07:15:20.741Z,1.82
2019-02-27T07:16:22.941Z,1.93
2019-02-27T07:17:20.733Z,2.01
2019-02-27T07:18:20.715Z,2.09
2019-02-27T07:19:20.739Z,2.22
2019-02-27T07:20:23.870Z,2.23
2019-02-27T07:21:20.680Z,2.38
2019-02-27T07:22:20.672Z,2.51
2019-02-27T07:23:23.620Z,2.73
2019-02-27T07:24:20.680Z,2.89
2019-02-27T07:25:20.642Z,2.89
2019-02-27T07:26:20.629Z,3.00
2019-02-27T07:27:20.616Z,2.94
2019-02-27T07:28:20.602Z,2.89
2019-02-27T07:29:22.133Z,2.95
2019-02-27T07:30:23.640Z,3.00
2019-02-27T07:31:20.581Z,3.16
2019-02-27T07:32:20.569Z,3.20
2019-02-27T07:33:20.554Z,3.25
2019-02-27T07:34:20.576Z,3.36
2019-02-27T07:35:20.532Z,3.49
2019-02-27T07:36:20.530Z,3.60
2019-02-27T07:37:20.517Z,3.72
2019-02-27T07:38:21.631Z,3.80
2019-02-27T07:39:20.519Z,3.90
2019-02-27T07:40:20.498Z,4.10
2019-02-27T07:41:21.033Z,4.18
2019-02-27T07:42:20.461Z,4.36
2019-02-27T07:43:20.503Z,4.59
2019-02-27T07:44:20.445Z,4.83
2019-02-27T07:45:22.546Z,4.98
2019-02-27T07:46:22.401Z,5.14
2019-02-27T07:47:20.416Z,5.22
2019-02-27T07:48:20.405Z,5.31
2019-02-27T07:49:20.431Z,5.31
2019-02-27T07:50:20.408Z,5.45
2019-02-27T07:51:20.792Z,5.41
2019-02-27T07:52:20.369Z,5.70
2019-02-27T07:53:20.342Z,5.89
2019-02-27T07:54:20.366Z,6.03
2019-02-27T07:55:22.971Z,6.10
2019-02-27T07:56:20.328Z,6.14
2019-02-27T07:57:20.312Z,6.30
2019-02-27T07:58:20.293Z,6.43
2019-02-27T07:59:20.321Z,6.48
2019-02-27T08:00:20.434Z,6.69
2019-02-27T08:01:20.970Z,6.77
2019-02-27T08:02:20.256Z,6.95
2019-02-27T08:03:20.247Z,7.07
2019-02-27T08:04:22.850Z,7.15
2019-02-27T08:05:20.271Z,7.17
2019-02-27T08:06:20.225Z,7.23
2019-02-27T08:07:20.242Z,7.40
2019-02-27T08:08:23.222Z,7.40
2019-02-27T08:09:20.319Z,7.62
2019-02-27T08:10:20.230Z,7.92
2019-02-27T08:11:20.193Z,8.32
2019-02-27T08:12:20.770Z,8.62
2019-02-27T08:13:20.136Z,8.81
2019-02-27T08:14:20.125Z,9.15
2019-02-27T08:15:20.121Z,9.27
2019-02-27T08:16:20.139Z,9.61
2019-02-27T08:17:20.100Z,9.71
2019-02-27T08:18:29.544Z,10.03
2019-02-27T08:19:21.141Z,10.09
2019-02-27T08:20:21.099Z,10.39
2019-02-27T08:21:20.062Z,10.37
2019-02-27T08:22:20.049Z,10.63
2019-02-27T08:23:20.037Z,10.65
2019-02-27T08:24:20.047Z,10.88
2019-02-27T08:25:20.020Z,11.01
2019-02-27T08:26:20.002Z,11.06
2019-02-27T08:27:19.990Z,11.27
2019-02-27T08:28:19.995Z,11.27
2019-02-27T08:29:20.000Z,11.35
2019-02-27T08:30:19.962Z,11.24
2019-02-27T08:31:19.957Z,11.19
2019-02-27T08:32:19.942Z,11.01
2019-02-27T08:33:19.930Z,11.10
2019-02-27T08:34:19.969Z,11.34
2019-02-27T08:35:19.917Z,11.50
2019-02-27T08:36:19.927Z,11.80
2019-02-27T08:37:20.327Z,11.96
2019-02-27T08:38:19.885Z,12.13
2019-02-27T08:39:20.249Z,12.20
2019-02-27T08:40:24.411Z,12.13
2019-02-27T08:41:20.845Z,12.45
2019-02-27T08:42:19.830Z,12.69
2019-02-27T08:43:19.862Z,12.97
2019-02-27T08:44:19.846Z,13.06
2019-02-27T08:45:20.564Z,12.95
2019-02-27T08:46:19.794Z,13.02
2019-02-27T08:47:19.789Z,13.07
2019-02-27T08:48:19.769Z,13.38
2019-02-27T08:49:24.021Z,13.61
2019-02-27T08:50:20.747Z,13.76
2019-02-27T08:51:19.743Z,13.95
2019-02-27T08:52:19.732Z,14.04
2019-02-27T08:53:19.721Z,14.04
2019-02-27T08:54:19.711Z,14.16
2019-02-27T08:55:22.345Z,14.32
2019-02-27T08:56:19.684Z,14.42
2019-02-27T08:57:19.684Z,14.54
2019-02-27T08:58:19.666Z,14.71
2019-02-27T08:59:19.660Z,15.01
2019-02-27T09:00:19.759Z,15.24
2019-02-27T09:01:21.673Z,15.43
2019-02-27T09:02:19.629Z,15.56
2019-02-27T09:03:20.573Z,15.56
2019-02-27T09:04:19.618Z,15.60
2019-02-27T09:05:20.780Z,15.74
2019-02-27T09:06:19.579Z,16.03
2019-02-27T09:07:19.567Z,16.11
2019-02-27T09:08:19.555Z,16.11
2019-02-27T09:09:19.548Z,16.04
2019-02-27T09:10:19.739Z,16.00
2019-02-27T09:11:19.532Z,16.03
2019-02-27T09:12:19.516Z,16.26
2019-02-27T09:13:19.529Z,16.55
2019-02-27T09:14:19.496Z,16.80
2019-02-27T09:15:19.480Z,16.96
2019-02-27T09:16:19.479Z,16.96
2019-02-27T09:17:19.469Z,17.10
2019-02-27T09:18:19.449Z,17.17
2019-02-27T09:19:20.751Z,17.47
2019-02-27T09:20:20.495Z,17.46
2019-02-27T09:21:19.416Z,17.57
2019-02-27T09:22:19.406Z,17.67
2019-02-27T09:23:19.397Z,17.74
2019-02-27T09:24:19.388Z,17.97
2019-02-27T09:25:23.694Z,18.24
2019-02-27T09:26:20.371Z,18.24
2019-02-27T09:27:19.380Z,18.28
2019-02-27T09:28:19.383Z,18.40
2019-02-27T09:29:19.340Z,18.61
2019-02-27T09:30:19.328Z,18.62
2019-02-27T09:31:19.387Z,17.97
2019-02-27T09:32:20.471Z,17.95
2019-02-27T09:33:20.044Z,18.17
2019-02-27T09:34:19.324Z,18.28
2019-02-27T09:35:19.300Z,18.22
2019-02-27T09:36:19.259Z,18.29
2019-02-27T09:37:19.259Z,17.95
2019-02-27T09:38:19.242Z,17.79
2019-02-27T09:39:19.229Z,17.88
2019-02-27T09:40:19.246Z,17.95
2019-02-27T09:41:19.212Z,17.97
2019-02-27T09:42:19.783Z,17.71
2019-02-27T09:43:19.225Z,17.48
2019-02-27T09:44:19.178Z,17.46
2019-02-27T09:45:19.199Z,17.78
2019-02-27T09:46:20.066Z,17.95
2019-02-27T09:47:19.143Z,18.09
2019-02-27T09:48:19.368Z,18.28
2019-02-27T09:49:19.123Z,18.29
2019-02-27T09:50:19.153Z,18.65
2019-02-27T09:51:22.135Z,18.61
2019-02-27T09:52:19.092Z,18.67
2019-02-27T09:53:19.082Z,18.72
2019-02-27T09:54:19.067Z,18.43
2019-02-27T09:55:20.307Z,18.73
2019-02-27T09:56:19.070Z,19.20
2019-02-27T09:57:19.041Z,19.35
2019-02-27T09:58:19.026Z,19.33
2019-02-27T09:59:19.692Z,19.57
2019-02-27T10:00:19.247Z,20.02
2019-02-27T10:01:19.011Z,20.28
2019-02-27T10:02:18.997Z,20.27
2019-02-27T10:03:21.167Z,20.00
2019-02-27T10:04:18.962Z,19.38
2019-02-27T10:05:18.980Z,19.14
2019-02-27T10:06:18.937Z,19.29
2019-02-27T10:07:18.941Z,18.95
2019-02-27T10:08:18.918Z,18.74
2019-02-27T10:09:18.926Z,18.86
2019-02-27T10:10:18.944Z,19.48
2019-02-27T10:11:21.563Z,19.69
2019-02-27T10:12:18.875Z,20.02
2019-02-27T10:13:18.866Z,19.98
2019-02-27T10:14:18.865Z,19.97
2019-02-27T10:15:18.884Z,19.93
2019-02-27T10:16:18.843Z,20.24
2019-02-27T10:17:18.841Z,20.20
2019-02-27T10:18:21.879Z,20.09
2019-02-27T10:19:18.807Z,20.34
2019-02-27T10:20:18.826Z,20.35
2019-02-27T10:21:18.817Z,20.15
2019-02-27T10:22:20.290Z,20.16
2019-02-27T10:23:18.764Z,20.27
2019-02-27T10:24:18.784Z,20.83
2019-02-27T10:25:18.742Z,21.17
2019-02-27T10:26:22.642Z,21.30
2019-02-27T10:27:18.716Z,21.17
2019-02-27T10:28:18.706Z,20.42
2019-02-27T10:29:19.067Z,20.16
2019-02-27T10:30:18.678Z,20.20
2019-02-27T10:31:18.680Z,20.08
2019-02-27T10:32:18.672Z,20.08
2019-02-27T10:33:18.654Z,20.13
2019-02-27T10:34:18.662Z,20.42
2019-02-27T10:35:18.636Z,20.53
2019-02-27T10:36:18.614Z,20.74
2019-02-27T10:37:19.006Z,20.80
2019-02-27T10:38:18.598Z,20.79
2019-02-27T10:39:18.584Z,20.87
2019-02-27T10:40:18.616Z,21.20
2019-02-27T10:41:18.567Z,21.57
2019-02-27T10:42:18.553Z,21.45
2019-02-27T10:43:18.553Z,21.48
2019-02-27T10:44:18.560Z,21.42
2019-02-27T10:45:18.545Z,21.39
2019-02-27T10:46:18.555Z,21.75
2019-02-27T10:47:18.517Z,21.88
2019-02-27T10:48:18.500Z,21.92
2019-02-27T10:49:21.650Z,22.50
2019-02-27T10:50:18.475Z,22.53
2019-02-27T10:51:18.483Z,22.52
2019-02-27T10:52:24.070Z,22.69
2019-02-27T10:53:19.721Z,22.22
2019-02-27T10:54:18.441Z,22.23
2019-02-27T10:55:18.422Z,22.68
2019-02-27T10:56:18.404Z,23.14
2019-02-27T10:57:18.396Z,23.61
2019-02-27T10:58:18.382Z,23.83
2019-02-27T10:59:19.664Z,23.92
2019-02-27T11:00:18.362Z,23.70
2019-02-27T11:01:18.355Z,23.86
2019-02-27T11:02:18.342Z,23.40
2019-02-27T11:03:18.340Z,23.12
2019-02-27T11:04:18.326Z,23.45
2019-02-27T11:05:18.473Z,23.92
2019-02-27T11:06:18.331Z,23.83
2019-02-27T11:07:18.289Z,23.62
2019-02-27T11:08:19.228Z,23.98
2019-02-27T11:09:18.273Z,24.00
2019-02-27T11:10:18.256Z,23.71
2019-02-27T11:11:18.385Z,23.58
2019-02-27T11:12:18.249Z,23.89
2019-02-27T11:13:18.223Z,23.95
2019-02-27T11:14:18.219Z,23.82
2019-02-27T11:15:18.205Z,23.67
2019-02-27T11:16:20.852Z,24.13
2019-02-27T11:17:18.210Z,24.07
2019-02-27T11:18:18.174Z,23.94
2019-02-27T11:19:18.213Z,23.83
2019-02-27T11:20:21.203Z,23.46
2019-02-27T11:21:18.172Z,23.32
2019-02-27T11:22:18.132Z,23.53
2019-02-27T11:23:18.119Z,23.38
2019-02-27T11:24:18.140Z,23.71
2019-02-27T11:25:22.233Z,23.35
2019-02-27T11:26:19.110Z,23.23
2019-02-27T11:27:18.074Z,23.68
2019-02-27T11:28:18.076Z,23.76
2019-02-27T11:29:18.052Z,23.42
2019-02-27T11:30:18.067Z,23.95
2019-02-27T11:31:18.067Z,24.16
2019-02-27T11:32:22.885Z,24.50
2019-02-27T11:33:25.654Z,24.41
2019-02-27T11:34:18.998Z,24.71
2019-02-27T11:35:18.000Z,24.83
2019-02-27T11:36:18.006Z,24.56
2019-02-27T11:37:17.968Z,24.37
2019-02-27T11:38:17.969Z,24.69
2019-02-27T11:39:17.956Z,24.56
2019-02-27T11:40:17.949Z,24.44
2019-02-27T11:41:17.957Z,24.73
2019-02-27T11:42:17.916Z,24.92
2019-02-27T11:43:17.913Z,24.83
2019-02-27T11:44:17.909Z,24.67
2019-02-27T11:45:17.903Z,24.45
2019-02-27T11:46:18.448Z,24.53
2019-02-27T11:47:17.863Z,24.83
2019-02-27T11:48:20.379Z,24.85
2019-02-27T11:49:17.861Z,24.87
2019-02-27T11:50:18.696Z,25.10
2019-02-27T11:51:20.215Z,25.17
2019-02-27T11:52:17.859Z,25.30
2019-02-27T11:53:17.811Z,25.90
2019-02-27T11:54:17.813Z,25.98
2019-02-27T11:55:17.802Z,26.08
2019-02-27T11:56:20.289Z,26.17
2019-02-27T11:57:17.772Z,25.62
2019-02-27T11:58:17.759Z,25.56
2019-02-27T11:59:17.751Z,25.79
2019-02-27T12:00:17.944Z,25.83
2019-02-27T12:01:21.842Z,25.34
2019-02-27T12:02:17.707Z,25.35
2019-02-27T12:03:17.726Z,25.84
2019-02-27T12:04:19.500Z,26.47
2019-02-27T12:05:17.684Z,26.87
2019-02-27T12:06:17.669Z,26.99
2019-02-27T12:07:17.997Z,26.92
2019-02-27T12:08:17.660Z,27.29
2019-02-27T12:09:17.645Z,27.21
2019-02-27T12:10:17.632Z,27.17
2019-02-27T12:11:17.665Z,27.24
2019-02-27T12:12:17.603Z,26.80
2019-02-27T12:13:17.597Z,26.15
2019-02-27T12:14:18.967Z,26.02
2019-02-27T12:15:17.571Z,25.80
2019-02-27T12:16:18.330Z,26.04
2019-02-27T12:17:17.560Z,25.86
2019-02-27T12:18:17.540Z,25.44
2019-02-27T12:19:17.538Z,25.64
2019-02-27T12:20:18.251Z,26.27
2019-02-27T12:21:17.557Z,26.80
2019-02-27T12:22:17.506Z,26.57
2019-02-27T12:23:17.493Z,26.09
2019-02-27T12:24:18.966Z,25.83
2019-02-27T12:25:17.468Z,25.64
2019-02-27T12:26:17.483Z,25.16
2019-02-27T12:27:37.799Z,25.05
2019-02-27T12:28:18.440Z,25.28
2019-02-27T12:29:17.430Z,25.68
2019-02-27T12:30:17.420Z,25.56
2019-02-27T12:31:17.444Z,25.47
2019-02-27T12:32:19.406Z,25.87
2019-02-27T12:33:17.389Z,26.43
2019-02-27T12:34:17.392Z,26.44
2019-02-27T12:35:17.367Z,26.47
2019-02-27T12:36:18.717Z,26.58
2019-02-27T12:37:27.819Z,25.87
2019-02-27T12:38:18.333Z,25.91
2019-02-27T12:39:18.636Z,26.17
2019-02-27T12:40:17.313Z,26.28
2019-02-27T12:41:17.299Z,25.87
2019-02-27T12:42:17.329Z,26.11
2019-02-27T12:43:18.332Z,26.04
2019-02-27T12:44:17.276Z,25.64
2019-02-27T12:45:17.279Z,25.72
2019-02-27T12:46:17.249Z,26.12
2019-02-27T12:47:17.274Z,26.74
2019-02-27T12:48:17.235Z,26.80
2019-02-27T12:49:19.982Z,26.54
2019-02-27T12:50:17.206Z,26.83
2019-02-27T12:51:17.198Z,26.83
2019-02-27T12:52:17.213Z,26.06
2019-02-27T12:53:20.665Z,25.91
2019-02-27T12:54:17.164Z,25.91
2019-02-27T12:55:17.173Z,25.91
2019-02-27T12:56:17.142Z,26.27
2019-02-27T12:57:17.616Z,27.01